createdAt,value
2023-04-26T00:02:17.736Z,8.90
2023-04-26T00:04:46.400Z,11.03
2023-04-26T00:07:15.807Z,7.10
2023-04-26T00:09:44.786Z,8.13
2023-04-26T00:14:40.660Z,12.95
2023-04-26T00:17:09.672Z,9.10
2023-04-26T00:19:37.378Z,9.30
2023-04-26T00:22:05.586Z,10.37
2023-04-26T00:24:33.535Z,8.13
2023-04-26T00:27:01.590Z,10.25
2023-04-26T00:29:29.269Z,7.38
2023-04-26T00:31:57.377Z,8.20
2023-04-26T00:34:26.476Z,8.00
2023-04-26T00:36:54.237Z,7.67
2023-04-26T00:39:22.680Z,13.70
2023-04-26T00:41:51.131Z,8.85
2023-04-26T00:44:18.800Z,8.85
2023-04-26T00:46:46.986Z,7.53
2023-04-26T00:49:17.728Z,6.63
2023-04-26T00:51:48.106Z,10.93
2023-04-26T00:54:16.671Z,14.30
2023-04-26T00:56:44.352Z,8.35
2023-04-26T00:59:11.995Z,8.30
2023-04-26T01:01:40.674Z,9.03
2023-04-26T01:04:08.647Z,7.50
2023-04-26T01:06:38.455Z,8.90
2023-04-26T01:09:09.784Z,12.63
2023-04-26T01:11:38.677Z,8.70
2023-04-26T01:16:36.676Z,8.00
2023-04-26T01:19:10.974Z,9.07
2023-04-26T01:21:38.756Z,6.13
2023-04-26T01:24:08.464Z,5.73
2023-04-26T01:26:37.314Z,7.90
2023-04-26T01:31:41.710Z,7.53
2023-04-26T01:34:09.445Z,7.03
2023-04-26T01:36:37.342Z,7.63
2023-04-26T01:39:05.183Z,8.13
2023-04-26T01:41:34.215Z,8.90
2023-04-26T01:44:02.348Z,7.63
2023-04-26T01:46:30.135Z,9.38
2023-04-26T01:48:58.211Z,5.57
2023-04-26T01:51:25.997Z,6.30
2023-04-26T01:53:53.825Z,6.17
2023-04-26T01:56:22.583Z,6.20
2023-04-26T01:58:51.833Z,9.73
2023-04-26T02:01:19.844Z,6.70
2023-04-26T02:03:47.627Z,6.40
2023-04-26T02:06:15.360Z,8.40
2023-04-26T02:08:43.063Z,6.43
2023-04-26T02:11:11.573Z,8.43
2023-04-26T02:13:39.233Z,8.75
2023-04-26T02:16:08.918Z,7.73
2023-04-26T02:18:36.734Z,7.60
2023-04-26T02:21:04.404Z,7.47
2023-04-26T02:23:32.957Z,8.30
2023-04-26T02:26:00.661Z,7.32
2023-04-26T02:28:28.357Z,4.03
2023-04-26T02:30:56.722Z,7.90
2023-04-26T02:33:25.897Z,8.60
2023-04-26T02:35:53.623Z,8.13
2023-04-26T02:38:21.380Z,6.83
2023-04-26T02:40:49.169Z,7.77
2023-04-26T02:43:16.856Z,7.70
2023-04-26T02:45:44.739Z,6.20
2023-04-26T02:48:12.339Z,8.33
2023-04-26T02:50:41.444Z,5.50
2023-04-26T02:53:09.063Z,5.90
2023-04-26T02:55:38.903Z,10.47
2023-04-26T02:58:06.626Z,7.83
2023-04-26T03:00:35.113Z,7.53
2023-04-26T03:03:03.058Z,7.43
2023-04-26T03:05:30.835Z,9.23
2023-04-26T03:07:59.906Z,7.83
2023-04-26T03:10:27.602Z,5.87
2023-04-26T03:12:55.246Z,7.07
2023-04-26T03:15:22.912Z,7.57
2023-04-26T03:17:50.675Z,4.60
2023-04-26T03:20:18.787Z,6.43
2023-04-26T03:22:47.045Z,9.43
2023-04-26T03:25:16.309Z,8.40
2023-04-26T03:27:44.002Z,8.53
2023-04-26T03:30:13.391Z,7.43
2023-04-26T03:32:41.090Z,10.17
2023-04-26T03:35:10.564Z,11.53
2023-04-26T03:37:40.167Z,10.90
2023-04-26T03:40:09.890Z,12.00
2023-04-26T03:42:38.982Z,11.87
2023-04-26T03:45:08.042Z,10.23
2023-04-26T03:47:35.917Z,11.90
2023-04-26T03:50:03.723Z,11.17
2023-04-26T03:52:31.539Z,16.17
2023-04-26T03:54:59.328Z,10.00
2023-04-26T03:57:27.119Z,11.60
2023-04-26T03:59:56.320Z,10.67
2023-04-26T04:02:24.179Z,12.97
2023-04-26T04:04:52.329Z,11.20
2023-04-26T04:07:20.234Z,10.23
2023-04-26T04:09:47.958Z,13.37
2023-04-26T04:12:15.658Z,10.63
2023-04-26T04:14:43.419Z,13.07
2023-04-26T04:17:12.806Z,10.60
2023-04-26T04:19:40.579Z,12.83
2023-04-26T04:22:08.327Z,12.03
2023-04-26T04:24:36.072Z,13.03
2023-04-26T04:27:03.752Z,14.43
2023-04-26T04:29:31.601Z,11.17
2023-04-26T04:31:59.687Z,16.33
2023-04-26T04:34:29.038Z,13.80
2023-04-26T04:36:56.843Z,14.87
2023-04-26T04:39:24.514Z,11.00
2023-04-26T04:41:52.271Z,13.87
2023-04-26T04:44:19.956Z,15.33
2023-04-26T04:46:48.131Z,14.13
2023-04-26T04:49:16.134Z,13.93
2023-04-26T04:51:45.152Z,16.55
2023-04-26T04:54:13.322Z,13.63
2023-04-26T04:56:41.165Z,15.07
2023-04-26T04:59:09.089Z,14.97
2023-04-26T05:01:38.509Z,13.90
2023-04-26T05:04:07.525Z,14.03
2023-04-26T05:06:36.190Z,15.63
2023-04-26T05:09:05.934Z,14.13
2023-04-26T05:11:33.904Z,16.63
2023-04-26T05:14:01.753Z,17.48
2023-04-26T05:16:29.464Z,11.97
2023-04-26T05:18:57.141Z,12.83
2023-04-26T05:21:24.905Z,13.27
2023-04-26T05:23:52.847Z,13.57
2023-04-26T05:26:22.191Z,13.90
2023-04-26T05:28:49.893Z,16.93
2023-04-26T05:31:17.733Z,14.80
2023-04-26T05:33:45.443Z,13.23
2023-04-26T05:36:13.160Z,11.37
2023-04-26T05:38:41.424Z,13.03
2023-04-26T05:41:09.281Z,17.15
2023-04-26T05:43:38.348Z,12.57
2023-04-26T05:46:06.080Z,15.87
2023-04-26T05:48:33.861Z,13.83
2023-04-26T05:51:01.726Z,12.53
2023-04-26T05:53:29.422Z,14.63
2023-04-26T05:55:57.267Z,13.63
2023-04-26T05:58:25.158Z,13.23
2023-04-26T06:00:54.210Z,9.73
2023-04-26T06:03:22.170Z,9.70
2023-04-26T06:05:50.061Z,9.07
2023-04-26T06:08:17.758Z,8.93
2023-04-26T06:10:47.013Z,10.00
2023-04-26T06:13:15.784Z,10.73
2023-04-26T06:18:12.353Z,6.87
2023-04-26T06:20:40.162Z,18.40
2023-04-26T06:23:08.091Z,11.70
2023-04-26T06:25:37.100Z,7.10
2023-04-26T06:28:05.095Z,8.57
2023-04-26T06:30:32.834Z,13.65
2023-04-26T06:33:01.029Z,12.47
2023-04-26T06:35:30.161Z,8.18
2023-04-26T06:37:57.841Z,8.50
2023-04-26T06:40:25.547Z,9.80
2023-04-26T06:42:54.333Z,5.90
2023-04-26T06:47:52.721Z,8.13
2023-04-26T06:50:20.762Z,6.93
2023-04-26T06:52:49.857Z,7.10
2023-04-26T06:55:17.629Z,11.00
2023-04-26T06:57:45.333Z,6.53
2023-04-26T07:00:14.155Z,6.57
2023-04-26T07:05:10.244Z,8.52
2023-04-26T07:07:37.994Z,6.78
2023-04-26T07:10:08.631Z,9.27
2023-04-26T07:12:36.499Z,8.10
2023-04-26T07:15:06.625Z,8.10
2023-04-26T07:17:34.409Z,5.27
2023-04-26T07:20:02.280Z,7.47
2023-04-26T07:22:30.001Z,5.10
2023-04-26T07:24:57.744Z,4.63
2023-04-26T07:27:26.781Z,6.60
2023-04-26T07:29:55.413Z,5.47
2023-04-26T07:32:23.302Z,4.75
2023-04-26T07:34:51.251Z,2.85
2023-04-26T07:37:18.940Z,5.03
2023-04-26T07:39:46.612Z,6.60
2023-04-26T07:42:14.217Z,2.90
2023-04-26T07:44:43.273Z,5.80
2023-04-26T07:47:14.535Z,5.43
2023-04-26T07:49:42.531Z,6.77
2023-04-26T07:52:10.583Z,7.18
2023-04-26T07:54:39.958Z,8.85
2023-04-26T07:57:07.706Z,6.60
2023-04-26T07:59:35.423Z,4.90
2023-04-26T08:02:04.553Z,6.07
2023-04-26T08:04:34.777Z,3.97
2023-04-26T08:07:03.061Z,4.90
2023-04-26T08:09:31.308Z,7.68
2023-04-26T08:11:59.185Z,3.65
2023-04-26T08:14:27.196Z,4.13
2023-04-26T08:16:54.918Z,5.35
2023-04-26T08:19:24.071Z,5.83
2023-04-26T08:21:51.750Z,6.80
2023-04-26T08:24:19.352Z,4.00
2023-04-26T08:26:46.984Z,4.37
2023-04-26T08:29:14.969Z,4.80
2023-04-26T08:31:42.703Z,4.60
2023-04-26T08:34:11.370Z,3.03
2023-04-26T08:36:40.488Z,3.97
2023-04-26T08:39:08.411Z,5.67
2023-04-26T08:41:43.645Z,4.13
2023-04-26T08:44:12.014Z,6.23
2023-04-26T08:46:46.070Z,3.25
2023-04-26T08:49:23.467Z,4.87
2023-04-26T08:51:52.899Z,6.67
2023-04-26T08:54:21.209Z,4.73
2023-04-26T08:56:49.718Z,2.45
2023-04-26T08:59:17.631Z,3.88
2023-04-26T09:01:46.126Z,1.80
2023-04-26T09:04:14.387Z,1.80
2023-04-26T09:06:42.767Z,4.40
2023-04-26T09:09:18.892Z,3.05
2023-04-26T09:11:55.061Z,4.90
2023-04-26T09:14:22.934Z,3.43
2023-04-26T09:16:52.079Z,3.67
2023-04-26T09:19:34.213Z,4.03
2023-04-26T09:22:02.214Z,6.13
2023-04-26T09:24:48.473Z,5.18
2023-04-26T09:27:16.649Z,5.03
2023-04-26T09:29:58.719Z,4.38
2023-04-26T09:32:27.094Z,5.13
2023-04-26T09:34:54.852Z,4.35
2023-04-26T09:37:22.477Z,3.27
2023-04-26T09:39:51.901Z,5.20
2023-04-26T09:42:20.254Z,5.83
2023-04-26T09:44:47.947Z,6.28
2023-04-26T09:47:15.616Z,6.63
2023-04-26T09:49:48.759Z,4.80
2023-04-26T09:52:16.596Z,4.53
2023-04-26T09:54:48.399Z,3.05
2023-04-26T09:57:19.611Z,5.80
2023-04-26T09:59:49.446Z,4.43
2023-04-26T10:02:20.415Z,5.30
2023-04-26T10:04:49.727Z,1.70
2023-04-26T10:07:19.208Z,6.80
2023-04-26T10:09:47.824Z,3.47
2023-04-26T10:12:21.236Z,2.65
2023-04-26T10:14:49.889Z,3.63
2023-04-26T10:17:20.464Z,3.38
2023-04-26T10:19:51.707Z,2.80
2023-04-26T10:22:23.643Z,3.07
2023-04-26T10:24:51.731Z,3.23
2023-04-26T10:27:50.857Z,4.80
2023-04-26T10:30:20.346Z,3.00
2023-04-26T10:33:18.531Z,6.40
2023-04-26T10:36:09.753Z,2.67
2023-04-26T10:38:39.002Z,5.67
2023-04-26T10:41:36.082Z,6.13
2023-04-26T10:44:40.963Z,1.50
2023-04-26T10:47:22.409Z,4.43
2023-04-26T10:49:50.139Z,4.63
2023-04-26T10:52:20.354Z,3.63
2023-04-26T10:54:53.251Z,4.30
2023-04-26T10:57:21.615Z,5.57
2023-04-26T11:00:21.943Z,3.10
2023-04-26T11:02:58.171Z,3.10
2023-04-26T11:05:54.669Z,6.27
2023-04-26T11:08:26.671Z,4.53
2023-04-26T11:11:11.167Z,4.10
2023-04-26T11:13:40.649Z,3.43
2023-04-26T11:16:11.116Z,4.03
2023-04-26T11:18:40.668Z,5.63
2023-04-26T11:21:10.082Z,5.77
2023-04-26T11:23:37.889Z,3.42
2023-04-26T11:26:08.174Z,4.50
2023-04-26T11:28:38.279Z,3.77
2023-04-26T11:31:07.523Z,4.30
2023-04-26T11:33:36.950Z,3.43
2023-04-26T11:36:05.334Z,3.53
2023-04-26T11:38:33.039Z,4.60
2023-04-26T11:41:01.750Z,2.27
2023-04-26T11:46:05.189Z,1.90
2023-04-26T11:48:34.547Z,5.67
2023-04-26T11:51:05.105Z,5.47
2023-04-26T11:53:37.474Z,4.70
2023-04-26T11:56:06.163Z,4.30
2023-04-26T12:01:02.841Z,6.87
2023-04-26T12:03:32.314Z,3.27
2023-04-26T12:06:00.857Z,5.93
2023-04-26T12:08:29.953Z,4.97
2023-04-26T12:11:01.001Z,3.63
2023-04-26T12:13:29.559Z,2.47
2023-04-26T12:15:57.691Z,5.35
2023-04-26T12:18:31.651Z,5.53
2023-04-26T12:21:00.435Z,5.07
2023-04-26T12:23:39.203Z,6.53
2023-04-26T12:26:07.614Z,8.03
2023-04-26T12:28:35.337Z,6.00
2023-04-26T12:31:04.400Z,5.53
2023-04-26T12:33:33.041Z,5.83
2023-04-26T12:38:36.421Z,6.10
2023-04-26T12:41:04.331Z,4.30
2023-04-26T12:43:32.193Z,4.82
2023-04-26T12:45:59.984Z,4.35
2023-04-26T12:48:28.190Z,4.15
2023-04-26T12:50:55.949Z,4.38
2023-04-26T12:53:23.615Z,3.23
2023-04-26T12:55:53.266Z,5.53
2023-04-26T12:58:22.374Z,4.13
2023-04-26T13:00:51.196Z,2.07
2023-04-26T13:03:19.107Z,3.73
2023-04-26T13:05:47.086Z,3.63
2023-04-26T13:08:15.184Z,2.45
2023-04-26T13:10:43.260Z,3.20
2023-04-26T13:13:12.323Z,4.17
2023-04-26T13:15:39.989Z,6.37
2023-04-26T13:18:07.762Z,3.03
2023-04-26T13:20:36.210Z,4.88
2023-04-26T13:23:04.122Z,6.28
2023-04-26T13:25:31.885Z,1.48
2023-04-26T13:27:59.560Z,7.85
2023-04-26T13:30:28.662Z,3.50
2023-04-26T13:32:58.169Z,5.10
2023-04-26T13:35:28.112Z,8.35
2023-04-26T13:37:56.282Z,3.42
2023-04-26T13:40:23.995Z,4.60
2023-04-26T13:42:51.673Z,5.70
2023-04-26T13:45:19.603Z,4.70
2023-04-26T13:47:48.711Z,2.80
2023-04-26T13:50:16.483Z,7.63
2023-04-26T13:52:44.142Z,4.63
2023-04-26T13:55:11.957Z,4.47
2023-04-26T13:57:39.640Z,5.25
2023-04-26T14:00:08.946Z,4.38
2023-04-26T14:02:36.833Z,3.38
2023-04-26T14:05:08.097Z,7.00
2023-04-26T14:07:35.981Z,5.40
2023-04-26T14:10:03.824Z,3.00
2023-04-26T14:12:31.590Z,3.95
2023-04-26T14:15:02.259Z,2.95
2023-04-26T14:17:30.079Z,4.13
2023-04-26T14:19:57.785Z,5.38
2023-04-26T14:22:28.003Z,5.07
2023-04-26T14:24:56.031Z,2.83
2023-04-26T14:27:23.797Z,2.28
2023-04-26T14:29:51.466Z,3.83
2023-04-26T14:32:19.175Z,1.97
2023-04-26T14:34:46.886Z,5.17
2023-04-26T14:37:15.116Z,1.43
2023-04-26T14:39:44.105Z,3.55
2023-04-26T14:42:12.339Z,5.83
2023-04-26T14:44:40.089Z,5.22
2023-04-26T14:47:07.750Z,4.37
2023-04-26T14:49:35.406Z,5.77
2023-04-26T14:52:04.094Z,4.00
2023-04-26T14:57:00.689Z,4.00
2023-04-26T14:59:28.372Z,2.90
2023-04-26T15:01:56.402Z,3.20
2023-04-26T15:04:24.454Z,3.10
2023-04-26T15:06:52.404Z,3.58
2023-04-26T15:09:20.775Z,3.57
2023-04-26T15:11:48.500Z,1.63
2023-04-26T15:14:17.550Z,3.90
2023-04-26T15:16:45.724Z,2.97
2023-04-26T15:19:13.482Z,2.25
2023-04-26T15:21:41.216Z,3.85
2023-04-26T15:24:09.618Z,7.07
2023-04-26T15:26:37.680Z,4.68
2023-04-26T15:29:05.420Z,4.10
2023-04-26T15:31:35.480Z,5.53
2023-04-26T15:34:03.854Z,2.10
2023-04-26T15:36:32.001Z,2.60
2023-04-26T15:38:59.677Z,3.28
2023-04-26T15:41:27.302Z,4.73
2023-04-26T15:43:55.581Z,5.73
2023-04-26T15:46:23.329Z,3.70
2023-04-26T15:48:52.338Z,5.30
2023-04-26T15:51:20.011Z,3.27
2023-04-26T15:53:47.652Z,3.80
2023-04-26T15:56:15.849Z,4.37
2023-04-26T15:58:44.113Z,3.20
2023-04-26T16:01:11.966Z,5.03
2023-04-26T16:03:39.927Z,3.42
2023-04-26T16:06:09.567Z,4.72
2023-04-26T16:08:40.803Z,3.07
2023-04-26T16:11:08.925Z,5.17
2023-04-26T16:13:37.198Z,5.95
2023-04-26T16:16:07.773Z,4.22
2023-04-26T16:18:35.921Z,7.23
2023-04-26T16:21:07.325Z,5.75
2023-04-26T16:23:36.776Z,4.87
2023-04-26T16:26:04.762Z,2.83
2023-04-26T16:28:32.897Z,4.10
2023-04-26T16:31:01.009Z,2.72
2023-04-26T16:33:28.859Z,3.22
2023-04-26T16:35:56.687Z,2.55
2023-04-26T16:38:24.933Z,3.30
2023-04-26T16:40:58.634Z,6.53
2023-04-26T16:43:26.909Z,2.93
2023-04-26T16:46:01.893Z,5.53
2023-04-26T16:48:32.839Z,3.93
2023-04-26T16:51:01.122Z,4.73
2023-04-26T16:53:29.143Z,5.35
2023-04-26T16:55:58.435Z,3.70
2023-04-26T16:58:26.470Z,3.37
2023-04-26T17:00:54.306Z,2.78
2023-04-26T17:03:22.362Z,3.80
2023-04-26T17:05:50.757Z,3.55
2023-04-26T17:08:19.756Z,6.45
2023-04-26T17:10:48.231Z,5.23
2023-04-26T17:13:17.280Z,7.07
2023-04-26T17:15:45.008Z,5.30
2023-04-26T17:18:12.834Z,3.93
2023-04-26T17:20:41.135Z,4.82
2023-04-26T17:23:08.999Z,6.50
2023-04-26T17:25:36.876Z,3.60
2023-04-26T17:28:04.933Z,3.85
2023-04-26T17:30:34.004Z,5.85
2023-04-26T17:33:01.710Z,2.23
2023-04-26T17:35:29.490Z,4.97
2023-04-26T17:37:57.244Z,6.30
2023-04-26T17:40:24.886Z,2.50
2023-04-26T17:42:52.569Z,5.47
2023-04-26T17:45:20.402Z,4.00
2023-04-26T17:47:49.581Z,5.18
2023-04-26T17:50:17.781Z,6.97
2023-04-26T17:52:45.943Z,3.53
2023-04-26T17:55:14.067Z,4.68
2023-04-26T17:57:41.666Z,5.47
2023-04-26T18:00:10.486Z,4.23
2023-04-26T18:05:10.074Z,4.93
2023-04-26T18:07:38.591Z,3.83
2023-04-26T18:10:07.545Z,3.65
2023-04-26T18:12:36.160Z,4.07
2023-04-26T18:15:03.827Z,4.25
2023-04-26T18:17:31.757Z,9.73
2023-04-26T18:19:59.922Z,5.67
2023-04-26T18:22:28.986Z,3.00
2023-04-26T18:24:56.699Z,4.17
2023-04-26T18:27:24.424Z,6.93
2023-04-26T18:29:52.154Z,6.70
2023-04-26T18:32:19.869Z,5.30
2023-04-26T18:34:48.057Z,5.27
2023-04-26T18:37:15.780Z,5.78
2023-04-26T18:39:44.822Z,6.13
2023-04-26T18:42:12.589Z,6.40
2023-04-26T18:44:40.294Z,6.17
2023-04-26T18:47:07.957Z,8.63
2023-04-26T18:49:35.636Z,4.10
2023-04-26T18:52:03.632Z,9.17
2023-04-26T18:54:33.182Z,6.38
2023-04-26T18:57:03.359Z,5.87
2023-04-26T18:59:31.595Z,6.10
2023-04-26T19:01:59.753Z,5.47
2023-04-26T19:04:27.657Z,4.68
2023-04-26T19:06:55.529Z,6.30
2023-04-26T19:09:23.200Z,5.57
2023-04-26T19:11:50.848Z,7.87
2023-04-26T19:14:19.916Z,8.37
2023-04-26T19:16:48.053Z,6.07
2023-04-26T19:19:16.378Z,4.70
2023-04-26T19:21:44.166Z,5.90
2023-04-26T19:24:12.253Z,7.83
2023-04-26T19:26:39.950Z,7.45
2023-04-26T19:29:07.625Z,5.10
2023-04-26T19:31:37.494Z,7.80
2023-04-26T19:34:05.201Z,6.73
2023-04-26T19:36:34.698Z,5.83
2023-04-26T19:39:02.345Z,4.37
2023-04-26T19:41:30.460Z,8.43
2023-04-26T19:43:58.208Z,6.40
2023-04-26T19:46:26.427Z,6.30
2023-04-26T19:48:55.599Z,6.05
2023-04-26T19:51:23.308Z,10.77
2023-04-26T19:53:50.954Z,8.20
2023-04-26T19:56:18.604Z,6.37
2023-04-26T19:58:46.257Z,6.77
2023-04-26T20:01:14.018Z,5.37
2023-04-26T20:03:42.271Z,5.80
2023-04-26T20:06:13.875Z,5.72
2023-04-26T20:08:41.756Z,4.63
2023-04-26T20:11:14.721Z,13.10
2023-04-26T20:13:42.682Z,7.27
2023-04-26T20:16:11.227Z,4.32
2023-04-26T20:18:39.345Z,6.30
2023-04-26T20:21:07.113Z,4.72
2023-04-26T20:23:36.268Z,5.47
2023-04-26T20:26:04.305Z,5.93
2023-04-26T20:28:32.029Z,5.45
2023-04-26T20:30:59.823Z,5.93
2023-04-26T20:33:27.718Z,5.40
2023-04-26T20:35:55.551Z,6.60
2023-04-26T20:38:23.281Z,7.07
2023-04-26T20:40:52.269Z,7.23
2023-04-26T20:43:20.025Z,6.13
2023-04-26T20:45:47.817Z,6.57
2023-04-26T20:48:15.526Z,7.68
2023-04-26T20:50:43.317Z,11.57
2023-04-26T20:53:11.122Z,7.20
2023-04-26T20:55:39.163Z,5.27
2023-04-26T20:58:08.141Z,6.10
2023-04-26T21:00:35.966Z,7.10
2023-04-26T21:03:03.705Z,5.35
2023-04-26T21:05:31.421Z,7.33
2023-04-26T21:07:59.132Z,8.33
2023-04-26T21:10:26.915Z,8.57
2023-04-26T21:12:54.601Z,8.43
2023-04-26T21:15:23.634Z,10.33
2023-04-26T21:17:51.279Z,9.93
2023-04-26T21:20:19.085Z,11.63
2023-04-26T21:22:46.755Z,10.13
2023-04-26T21:25:17.138Z,11.47
2023-04-26T21:27:44.806Z,14.37
2023-04-26T21:30:13.348Z,12.50
2023-04-26T21:32:42.456Z,13.70
2023-04-26T21:35:11.412Z,11.53
2023-04-26T21:37:39.440Z,13.50
2023-04-26T21:40:08.638Z,12.52
2023-04-26T21:42:36.297Z,12.47
2023-04-26T21:45:03.998Z,12.10
2023-04-26T21:47:31.657Z,15.03
2023-04-26T21:50:00.901Z,13.27
2023-04-26T21:52:28.559Z,11.33
2023-04-26T21:54:56.221Z,13.00
2023-04-26T21:57:24.284Z,13.27
2023-04-26T21:59:52.382Z,13.52
2023-04-26T22:02:20.161Z,14.43
2023-04-26T22:04:47.914Z,17.85
2023-04-26T22:07:16.917Z,18.30
2023-04-26T22:09:44.644Z,22.93
2023-04-26T22:12:12.263Z,25.53
2023-04-26T22:14:39.873Z,24.67
2023-04-26T22:17:07.635Z,25.57
2023-04-26T22:19:35.295Z,21.40
2023-04-26T22:22:03.168Z,19.00
2023-04-26T22:24:32.345Z,18.33
2023-04-26T22:27:00.004Z,15.80
2023-04-26T22:29:27.617Z,18.23
2023-04-26T22:31:55.247Z,15.03
2023-04-26T22:34:22.978Z,15.47
2023-04-26T22:36:50.755Z,14.17
2023-04-26T22:39:18.417Z,13.83
2023-04-26T22:41:47.385Z,16.97
2023-04-26T22:44:15.675Z,12.47
2023-04-26T22:46:43.338Z,11.55
2023-04-26T22:49:11.298Z,10.53
2023-04-26T22:51:39.180Z,10.32
2023-04-26T22:54:07.625Z,9.27
2023-04-26T22:56:35.278Z,12.27
2023-04-26T22:59:04.352Z,10.20
2023-04-26T23:01:32.271Z,9.60
2023-04-26T23:03:59.904Z,12.27
2023-04-26T23:06:27.987Z,9.93
2023-04-26T23:08:55.937Z,10.85
2023-04-26T23:11:23.676Z,12.95
2023-04-26T23:13:52.676Z,10.43
2023-04-26T23:16:22.360Z,12.90
2023-04-26T23:18:50.370Z,11.10
2023-04-26T23:21:18.066Z,9.70
2023-04-26T23:23:45.772Z,9.57
2023-04-26T23:26:14.355Z,8.83
2023-04-26T23:28:42.124Z,9.48
2023-04-26T23:31:09.880Z,10.50
2023-04-26T23:33:38.955Z,9.87
2023-04-26T23:36:08.006Z,8.20
2023-04-26T23:38:35.662Z,11.93
2023-04-26T23:41:03.465Z,14.67
2023-04-26T23:43:31.404Z,11.37
2023-04-26T23:45:59.076Z,15.63
2023-04-26T23:48:26.779Z,11.40
2023-04-26T23:50:55.897Z,10.33
2023-04-26T23:53:23.583Z,11.77
2023-04-26T23:55:51.278Z,12.43
2023-04-26T23:58:19.024Z,11.63
